Terminal Aerodrome Forecast
Issued by NWS

Home | Current Version | Previous Version | Text Only | Print | Product List | Glossary On
Versions: 1 2 3 4 5 6 7 8 9 10 11 12 13 14 15 16 17 18 19 20 21 22 23
506
FTUS43 KIND 202326
TAFLAF
TAF
KLAF 202326Z 2100/2124 22005KT P6SM -RA BKN060 OVC090
     FM210200 25010KT 6SM SHRA OVC030
     FM210300 29009KT 3SM SHRA OVC015
     FM210600 32011KT 2SM SHRA OVC008
     FM211000 34011KT 5SM SHRA OVC010
     FM211700 01010KT P6SM OVC035
      AMD LTD TO CLD VIS AND WIND 2102/2114=

USA.gov is the U.S. government's official web portal to all federal, state and local government web resources and services.